createdAt,value
2019-02-14T00:01:32.753Z,-0.70
2019-02-14T00:03:58.848Z,-0.60
2019-02-14T00:06:25.039Z,-0.70
2019-02-14T00:08:51.118Z,-0.60
2019-02-14T00:11:17.191Z,-0.60
2019-02-14T00:13:43.288Z,-0.10
2019-02-14T00:16:09.392Z,-0.60
2019-02-14T00:18:35.483Z,-0.60
2019-02-14T00:21:01.577Z,-0.60
2019-02-14T00:23:27.674Z,-0.60
2019-02-14T00:25:53.726Z,-0.60
2019-02-14T00:28:19.824Z,-0.60
2019-02-14T00:30:45.916Z,-0.60
2019-02-14T00:33:12.015Z,-0.60
2019-02-14T00:35:38.078Z,-0.70
2019-02-14T00:38:04.155Z,-0.70
2019-02-14T00:40:30.296Z,-0.70
2019-02-14T00:42:56.375Z,-0.60
2019-02-14T00:45:22.443Z,-0.90
2019-02-14T00:47:48.519Z,-0.90
2019-02-14T00:50:15.435Z,-0.80
2019-02-14T00:52:41.535Z,-1.00
2019-02-14T00:55:07.626Z,-1.00
2019-02-14T00:57:33.809Z,-1.00
2019-02-14T00:59:59.875Z,-1.00
2019-02-14T01:02:25.980Z,-1.10
2019-02-14T01:04:52.142Z,-1.00
2019-02-14T01:07:18.344Z,-1.00
2019-02-14T01:09:44.407Z,-1.00
2019-02-14T01:12:11.111Z,-0.90
2019-02-14T01:14:37.196Z,-0.90
2019-02-14T01:17:03.284Z,-0.80
2019-02-14T01:19:29.359Z,-0.90
2019-02-14T01:21:55.432Z,-0.90
2019-02-14T01:24:21.519Z,-0.80
2019-02-14T01:26:47.590Z,-0.80
2019-02-14T01:29:13.691Z,-0.80
2019-02-14T01:31:39.762Z,-0.80
2019-02-14T01:34:06.055Z,-0.90
2019-02-14T01:36:32.124Z,-0.90
2019-02-14T01:39:18.079Z,-0.90
2019-02-14T01:41:44.159Z,-0.60
2019-02-14T01:44:10.243Z,-1.00
2019-02-14T01:46:36.311Z,-1.00
2019-02-14T01:49:02.412Z,-0.90
2019-02-14T01:51:28.490Z,-0.90
2019-02-14T01:53:54.567Z,-0.90
2019-02-14T01:56:20.646Z,-1.10
2019-02-14T01:58:46.737Z,-1.10
2019-02-14T02:01:12.800Z,-1.10
2019-02-14T02:03:38.895Z,-1.10
2019-02-14T02:06:05.025Z,-1.10
2019-02-14T02:08:31.250Z,-1.10
2019-02-14T02:10:57.516Z,-1.00
2019-02-14T02:13:23.694Z,-1.00
2019-02-14T02:15:49.778Z,-1.00
2019-02-14T02:18:15.868Z,-1.10
2019-02-14T02:20:41.931Z,-1.00
2019-02-14T02:23:08.032Z,-1.00
2019-02-14T02:25:34.117Z,-0.90
2019-02-14T02:28:00.485Z,-0.90
2019-02-14T02:30:26.597Z,-0.90
2019-02-14T02:32:52.768Z,-0.80
2019-02-14T02:35:18.999Z,-0.80
2019-02-14T02:37:45.208Z,-0.90
2019-02-14T02:40:11.497Z,-0.90
2019-02-14T02:42:37.615Z,-0.90
2019-02-14T02:45:07.231Z,-0.90
2019-02-14T02:47:33.421Z,-1.00
2019-02-14T02:49:59.503Z,-1.00
2019-02-14T02:52:25.736Z,-1.00
2019-02-14T02:54:51.909Z,-1.10
2019-02-14T02:57:18.008Z,-1.20
2019-02-14T02:59:44.089Z,-1.30
2019-02-14T03:02:10.306Z,-1.30
2019-02-14T03:04:36.539Z,-1.30
2019-02-14T03:07:03.004Z,-1.40
2019-02-14T03:09:29.100Z,-1.30
2019-02-14T03:11:55.169Z,-1.10
2019-02-14T03:14:21.253Z,-1.00
2019-02-14T03:16:47.428Z,-0.90
2019-02-14T03:19:13.533Z,-0.70
2019-02-14T03:21:39.597Z,-0.80
2019-02-14T03:24:05.674Z,-0.70
2019-02-14T03:26:31.760Z,-0.90
2019-02-14T03:28:57.840Z,-1.00
2019-02-14T03:31:23.998Z,-1.10
2019-02-14T03:33:50.152Z,-1.10
2019-02-14T03:36:19.126Z,-1.10
2019-02-14T03:38:44.220Z,-1.10
2019-02-14T03:41:10.336Z,-1.10
2019-02-14T03:43:36.416Z,-1.10
2019-02-14T03:46:02.489Z,-1.10
2019-02-14T03:48:28.574Z,-1.20
2019-02-14T03:50:54.640Z,-1.10
2019-02-14T03:53:20.844Z,-1.10
2019-02-14T03:55:46.932Z,-1.10
2019-02-14T03:58:13.020Z,-1.00
2019-02-14T04:00:39.124Z,-1.00
2019-02-14T04:03:05.197Z,-1.10
2019-02-14T04:05:31.300Z,-1.00
2019-02-14T04:07:57.375Z,-1.00
2019-02-14T04:10:23.597Z,-1.00
2019-02-14T04:12:49.680Z,-1.10
2019-02-14T04:15:16.874Z,-1.00
2019-02-14T04:17:42.947Z,-1.10
2019-02-14T04:20:09.840Z,-1.00
2019-02-14T04:22:35.907Z,-1.10
2019-02-14T04:25:03.099Z,-1.00
2019-02-14T04:27:29.172Z,-1.00
2019-02-14T04:29:55.370Z,-1.00
2019-02-14T04:32:21.440Z,-1.00
2019-02-14T04:34:47.516Z,-1.00
2019-02-14T04:37:13.606Z,-1.00
2019-02-14T04:39:39.679Z,-1.10
2019-02-14T04:42:05.776Z,-1.20
2019-02-14T04:44:31.836Z,-1.20
2019-02-14T04:46:57.928Z,-1.20
2019-02-14T04:49:23.987Z,-1.30
2019-02-14T04:51:50.077Z,-1.30
2019-02-14T04:54:16.152Z,-1.30
2019-02-14T04:56:42.256Z,-1.40
2019-02-14T04:59:08.335Z,-1.40
2019-02-14T05:01:34.417Z,-1.40
2019-02-14T05:04:00.513Z,-1.40
2019-02-14T05:06:26.669Z,-1.40
2019-02-14T05:08:52.760Z,-1.40
2019-02-14T05:11:18.820Z,-1.30
2019-02-14T05:13:44.987Z,-1.20
2019-02-14T05:16:11.100Z,-1.20
2019-02-14T05:18:37.171Z,-1.10
2019-02-14T05:21:03.380Z,-1.00
2019-02-14T05:23:29.447Z,-1.00
2019-02-14T05:25:55.521Z,-0.90
2019-02-14T05:28:21.604Z,-0.80
2019-02-14T05:30:47.698Z,-0.80
2019-02-14T05:33:13.882Z,-0.80
2019-02-14T05:35:39.952Z,-0.80
2019-02-14T05:38:06.057Z,-0.70
2019-02-14T05:40:32.123Z,-0.60
2019-02-14T05:42:58.224Z,-0.60
2019-02-14T05:45:24.320Z,-0.60
2019-02-14T05:47:50.395Z,-0.70
2019-02-14T05:50:17.286Z,-0.60
2019-02-14T05:52:43.347Z,-0.70
2019-02-14T05:55:10.653Z,-0.60
2019-02-14T05:57:36.732Z,-0.60
2019-02-14T06:00:06.388Z,-0.60
2019-02-14T06:02:32.474Z,-0.50
2019-02-14T06:04:58.539Z,-0.50
2019-02-14T06:07:24.637Z,-0.50
2019-02-14T06:09:50.732Z,-0.50
2019-02-14T06:12:16.800Z,-0.50
2019-02-14T06:14:43.064Z,-0.40
2019-02-14T06:17:09.234Z,-0.50
2019-02-14T06:19:35.320Z,-0.50
2019-02-14T06:22:01.389Z,-0.60
2019-02-14T06:24:27.451Z,-0.50
2019-02-14T06:26:53.551Z,-0.50
2019-02-14T06:29:19.712Z,-0.40
2019-02-14T06:31:45.866Z,-1.90
2019-02-14T06:34:12.020Z,-0.30
2019-02-14T06:36:38.128Z,-0.40
2019-02-14T06:39:04.500Z,-0.50
2019-02-14T06:41:30.629Z,-0.50
2019-02-14T06:43:56.739Z,-0.50
2019-02-14T06:46:22.811Z,-0.50
2019-02-14T06:48:48.904Z,-0.40
2019-02-14T06:51:14.996Z,-0.20
2019-02-14T06:53:41.083Z,0.00
2019-02-14T06:56:07.254Z,0.30
2019-02-14T06:58:33.325Z,0.60
2019-02-14T07:00:59.424Z,0.70
2019-02-14T07:03:25.496Z,0.80
2019-02-14T07:05:51.587Z,0.90
2019-02-14T07:08:17.642Z,1.00
2019-02-14T07:10:43.726Z,1.10
2019-02-14T07:13:09.851Z,1.20
2019-02-14T07:15:35.920Z,1.20
2019-02-14T07:18:02.021Z,1.10
2019-02-14T07:20:28.080Z,1.10
2019-02-14T07:22:54.178Z,1.20
2019-02-14T07:25:20.236Z,1.20
2019-02-14T07:27:46.328Z,1.10
2019-02-14T07:30:18.260Z,1.00
2019-02-14T07:32:44.332Z,0.80
2019-02-14T07:35:10.418Z,0.70
2019-02-14T07:37:36.496Z,0.80
2019-02-14T07:40:05.689Z,0.80
2019-02-14T07:42:31.867Z,0.90
2019-02-14T07:44:57.964Z,1.10
2019-02-14T07:47:24.075Z,1.40
2019-02-14T07:49:50.227Z,1.60
2019-02-14T07:52:16.324Z,1.80
2019-02-14T07:54:42.392Z,2.10
2019-02-14T07:57:08.496Z,2.20
2019-02-14T07:59:34.566Z,2.30
2019-02-14T08:02:00.628Z,2.20
2019-02-14T08:04:26.716Z,2.20
2019-02-14T08:06:52.767Z,2.30
2019-02-14T08:09:18.860Z,2.50
2019-02-14T08:11:45.037Z,2.70
2019-02-14T08:14:11.152Z,2.90
2019-02-14T08:16:37.226Z,3.10
2019-02-14T08:19:03.320Z,3.40
2019-02-14T08:21:29.488Z,3.70
2019-02-14T08:23:55.573Z,4.10
2019-02-14T08:26:21.643Z,4.30
2019-02-14T08:28:47.719Z,4.60
2019-02-14T08:31:13.796Z,4.90
2019-02-14T08:33:39.859Z,5.00
2019-02-14T08:36:05.941Z,5.20
2019-02-14T08:38:32.013Z,5.40
2019-02-14T08:40:58.088Z,5.50
2019-02-14T08:43:24.176Z,5.60
2019-02-14T08:45:50.301Z,5.80
2019-02-14T08:48:16.465Z,6.00
2019-02-14T08:50:42.548Z,6.20
2019-02-14T08:53:08.618Z,6.40
2019-02-14T08:55:34.708Z,6.60
2019-02-14T08:58:00.766Z,6.70
2019-02-14T09:00:26.957Z,6.60
2019-02-14T09:02:53.019Z,6.50
2019-02-14T09:05:19.133Z,6.40
2019-02-14T09:07:53.874Z,6.20
2019-02-14T09:10:16.519Z,6.10
2019-02-14T09:12:42.784Z,6.20
2019-02-14T09:15:10.690Z,6.10
2019-02-14T09:17:36.852Z,6.40
2019-02-14T09:20:06.660Z,6.60
2019-02-14T09:22:32.743Z,6.90
2019-02-14T09:24:58.849Z,6.70
2019-02-14T09:27:25.036Z,6.40
2019-02-14T09:29:51.130Z,6.70
2019-02-14T09:32:19.109Z,7.00
2019-02-14T09:34:45.169Z,7.40
2019-02-14T09:37:11.356Z,7.80
2019-02-14T09:39:40.926Z,8.20
2019-02-14T09:42:05.414Z,8.50
2019-02-14T09:44:31.608Z,8.90
2019-02-14T09:46:57.812Z,9.10
2019-02-14T09:49:23.880Z,9.10
2019-02-14T09:51:49.979Z,9.10
2019-02-14T09:54:16.061Z,9.30
2019-02-14T09:56:42.167Z,9.60
2019-02-14T09:59:08.348Z,9.80
2019-02-14T10:01:34.519Z,9.90
2019-02-14T10:04:00.602Z,10.00
2019-02-14T10:06:26.699Z,10.00
2019-02-14T10:08:52.793Z,10.00
2019-02-14T10:11:18.897Z,9.90
2019-02-14T10:13:44.983Z,9.80
2019-02-14T10:16:11.179Z,10.00
2019-02-14T10:18:37.260Z,10.20
2019-02-14T10:21:03.339Z,10.50
2019-02-14T10:23:29.437Z,10.50
2019-02-14T10:25:55.515Z,10.40
2019-02-14T10:28:21.612Z,10.30
2019-02-14T10:30:47.788Z,10.40
2019-02-14T10:33:13.880Z,10.60
2019-02-14T10:35:39.965Z,10.90
2019-02-14T10:38:06.152Z,10.90
2019-02-14T10:40:32.251Z,10.90
2019-02-14T10:42:58.364Z,10.60
2019-02-14T10:45:24.472Z,10.60
2019-02-14T10:47:50.574Z,10.70
2019-02-14T10:50:16.644Z,10.90
2019-02-14T10:52:42.731Z,11.00
2019-02-14T10:55:10.907Z,10.90
2019-02-14T10:57:37.016Z,11.10
2019-02-14T11:00:08.901Z,11.30
2019-02-14T11:02:34.996Z,11.60
2019-02-14T11:05:01.058Z,11.70
2019-02-14T11:07:27.173Z,11.80
2019-02-14T11:09:53.260Z,11.90
2019-02-14T11:12:19.363Z,11.90
2019-02-14T11:14:45.848Z,11.70
2019-02-14T11:17:12.129Z,11.50
2019-02-14T11:19:38.212Z,11.60
2019-02-14T11:22:04.284Z,11.70
2019-02-14T11:24:30.373Z,11.50
2019-02-14T11:26:56.556Z,11.40
2019-02-14T11:29:22.643Z,11.60
2019-02-14T11:31:48.709Z,11.60
2019-02-14T11:34:14.795Z,11.60
2019-02-14T11:36:40.868Z,11.50
2019-02-14T11:39:07.868Z,11.20
2019-02-14T11:41:33.957Z,10.90
2019-02-14T11:44:00.072Z,10.90
2019-02-14T11:46:26.153Z,10.90
2019-02-14T11:48:52.248Z,10.80
2019-02-14T11:51:38.233Z,10.80
2019-02-14T11:54:04.444Z,10.80
2019-02-14T11:56:30.528Z,10.90
2019-02-14T11:58:56.615Z,11.40
2019-02-14T12:01:22.688Z,11.70
2019-02-14T12:03:48.781Z,11.90
2019-02-14T12:06:17.602Z,12.10
2019-02-14T12:08:50.234Z,12.30
2019-02-14T12:11:10.825Z,12.30
2019-02-14T12:13:36.926Z,12.50
2019-02-14T12:16:03.013Z,12.60
2019-02-14T12:18:29.206Z,12.50
2019-02-14T12:20:55.328Z,12.40
2019-02-14T12:23:21.429Z,12.50
2019-02-14T12:25:47.500Z,12.40
2019-02-14T12:28:13.589Z,12.40
2019-02-14T12:30:39.663Z,12.40
2019-02-14T12:33:05.760Z,12.50
2019-02-14T12:35:31.844Z,12.70
2019-02-14T12:37:57.944Z,12.80
2019-02-14T12:40:24.046Z,12.90
2019-02-14T12:42:50.126Z,13.10
2019-02-14T12:45:24.188Z,13.40
2019-02-14T12:47:49.873Z,13.50
2019-02-14T12:50:16.086Z,13.60
2019-02-14T12:52:42.189Z,13.60
2019-02-14T12:55:08.596Z,13.60
2019-02-14T12:57:34.678Z,14.00
2019-02-14T13:00:00.773Z,14.70
2019-02-14T13:02:26.847Z,15.60
2019-02-14T13:04:52.949Z,16.30
2019-02-14T13:07:20.397Z,16.20
2019-02-14T13:09:46.788Z,16.20
2019-02-14T13:12:12.888Z,16.40
2019-02-14T13:14:38.969Z,16.90
2019-02-14T13:17:05.050Z,17.80
2019-02-14T13:19:31.123Z,18.50
2019-02-14T13:21:57.208Z,19.40
2019-02-14T13:24:23.273Z,20.30
2019-02-14T13:26:49.359Z,20.80
2019-02-14T13:29:15.428Z,21.00
2019-02-14T13:31:41.620Z,21.20
2019-02-14T13:34:07.693Z,21.40
2019-02-14T13:36:33.777Z,21.60
2019-02-14T13:38:59.859Z,21.40
2019-02-14T13:41:31.234Z,21.80
2019-02-14T13:43:53.944Z,22.20
2019-02-14T13:46:20.112Z,22.10
2019-02-14T13:48:46.230Z,22.00
2019-02-14T13:51:12.387Z,22.10
2019-02-14T13:53:38.484Z,22.20
2019-02-14T13:56:04.688Z,22.10
2019-02-14T13:58:30.864Z,22.80
2019-02-14T14:00:57.033Z,23.10
2019-02-14T14:03:23.120Z,23.50
2019-02-14T14:05:49.193Z,23.80
2019-02-14T14:08:15.289Z,24.20
2019-02-14T14:10:41.368Z,23.80
2019-02-14T14:13:07.450Z,23.50
2019-02-14T14:15:33.544Z,23.80
2019-02-14T14:17:59.669Z,24.20
2019-02-14T14:20:25.823Z,24.30
2019-02-14T14:22:51.951Z,24.40
2019-02-14T14:25:18.042Z,24.40
2019-02-14T14:27:44.115Z,23.50
2019-02-14T14:30:11.289Z,23.30
2019-02-14T14:32:37.372Z,23.50
2019-02-14T14:35:05.840Z,23.70
2019-02-14T14:37:31.988Z,23.90
2019-02-14T14:39:58.064Z,23.50
2019-02-14T14:42:41.469Z,23.10
2019-02-14T14:45:09.740Z,22.40
2019-02-14T14:47:35.837Z,22.80
2019-02-14T14:50:03.105Z,22.30
2019-02-14T14:52:29.179Z,22.00
2019-02-14T14:54:55.268Z,21.60
2019-02-14T14:57:21.362Z,21.40
2019-02-14T14:59:47.432Z,21.40
2019-02-14T15:02:13.512Z,21.90
2019-02-14T15:04:39.596Z,22.30
2019-02-14T15:07:05.671Z,22.30
2019-02-14T15:09:31.755Z,22.10
2019-02-14T15:11:57.832Z,22.10
2019-02-14T15:14:23.899Z,22.00
2019-02-14T15:16:49.984Z,22.00
2019-02-14T15:19:16.096Z,22.00
2019-02-14T15:21:42.263Z,21.90
2019-02-14T15:24:08.341Z,22.00
2019-02-14T15:26:34.420Z,22.30
2019-02-14T15:29:00.503Z,22.30
2019-02-14T15:31:26.701Z,21.70
2019-02-14T15:33:52.885Z,21.50
2019-02-14T15:36:19.080Z,21.40
2019-02-14T15:38:45.758Z,20.70
2019-02-14T15:41:11.845Z,20.60
2019-02-14T15:43:37.916Z,20.60
2019-02-14T15:46:03.988Z,20.50
2019-02-14T15:48:30.123Z,19.50
2019-02-14T15:50:56.693Z,17.80
2019-02-14T15:53:23.060Z,16.10
2019-02-14T15:55:49.147Z,14.30
2019-02-14T15:58:15.264Z,12.60
2019-02-14T16:00:41.428Z,11.60
2019-02-14T16:03:07.508Z,11.10
2019-02-14T16:05:33.619Z,11.10
2019-02-14T16:08:00.511Z,11.60
2019-02-14T16:10:29.609Z,12.60
2019-02-14T16:12:55.683Z,13.50
2019-02-14T16:15:21.767Z,14.30
2019-02-14T16:17:47.883Z,14.80
2019-02-14T16:20:15.356Z,14.70
2019-02-14T16:22:43.997Z,14.50
2019-02-14T16:25:10.046Z,14.00
2019-02-14T16:27:36.139Z,13.40
2019-02-14T16:30:02.711Z,12.70
2019-02-14T16:32:28.801Z,11.60
2019-02-14T16:34:54.884Z,10.10
2019-02-14T16:37:21.100Z,8.90
2019-02-14T16:40:07.950Z,8.20
2019-02-14T16:42:34.188Z,7.20
2019-02-14T16:45:00.359Z,7.10
2019-02-14T16:47:26.457Z,6.80
2019-02-14T16:49:52.522Z,6.50
2019-02-14T16:52:18.624Z,6.40
2019-02-14T16:54:44.691Z,6.30
2019-02-14T16:57:10.770Z,6.30
2019-02-14T16:59:36.882Z,6.20
2019-02-14T17:02:03.148Z,6.20
2019-02-14T17:04:29.328Z,6.10
2019-02-14T17:06:55.403Z,5.80
2019-02-14T17:09:21.501Z,5.60
2019-02-14T17:11:47.574Z,5.50
2019-02-14T17:14:13.687Z,5.40
2019-02-14T17:16:39.865Z,5.40
2019-02-14T17:19:05.936Z,5.30
2019-02-14T17:21:32.017Z,5.10
2019-02-14T17:23:58.086Z,4.90
2019-02-14T17:26:24.182Z,4.70
2019-02-14T17:28:50.373Z,4.50
2019-02-14T17:31:16.512Z,4.40
2019-02-14T17:33:42.644Z,4.40
2019-02-14T17:36:08.722Z,4.50
2019-02-14T17:38:34.808Z,4.40
2019-02-14T17:41:00.913Z,4.20
2019-02-14T17:43:27.021Z,4.40
2019-02-14T17:45:53.099Z,4.40
2019-02-14T17:48:19.203Z,4.30
2019-02-14T17:50:45.294Z,4.30
2019-02-14T17:53:11.366Z,4.30
2019-02-14T17:55:37.453Z,4.30
2019-02-14T17:58:03.543Z,4.30
2019-02-14T18:00:30.936Z,4.30
2019-02-14T18:02:57.001Z,4.20
2019-02-14T18:05:23.078Z,4.00
2019-02-14T18:07:49.197Z,4.00
2019-02-14T18:10:15.264Z,3.90
2019-02-14T18:12:41.369Z,3.90
2019-02-14T18:15:10.461Z,3.80
2019-02-14T18:17:36.687Z,3.80
2019-02-14T18:20:05.580Z,3.60
2019-02-14T18:22:31.639Z,3.40
2019-02-14T18:24:57.739Z,3.30
2019-02-14T18:27:23.824Z,3.30
2019-02-14T18:29:50.002Z,3.30
2019-02-14T18:32:16.067Z,3.40
2019-02-14T18:34:42.143Z,3.40
2019-02-14T18:37:08.223Z,3.40
2019-02-14T18:39:34.283Z,3.30
2019-02-14T18:42:00.408Z,3.10
2019-02-14T18:44:26.471Z,3.00
2019-02-14T18:46:52.572Z,2.80
2019-02-14T18:49:18.623Z,2.70
2019-02-14T18:51:44.682Z,2.70
2019-02-14T18:54:10.757Z,2.60
2019-02-14T18:56:36.903Z,2.50
2019-02-14T18:59:02.961Z,2.40
2019-02-14T19:01:29.025Z,2.40
2019-02-14T19:03:55.103Z,2.30
2019-02-14T19:06:21.238Z,2.10
2019-02-14T19:08:47.399Z,2.00
2019-02-14T19:11:15.432Z,2.10
2019-02-14T19:13:41.471Z,2.00
2019-02-14T19:16:07.551Z,2.00
2019-02-14T19:18:33.780Z,2.00
2019-02-14T19:20:59.856Z,2.00
2019-02-14T19:23:26.110Z,2.00
2019-02-14T19:25:52.273Z,2.00
2019-02-14T19:28:18.348Z,2.00
2019-02-14T19:30:44.468Z,2.10
2019-02-14T19:33:10.558Z,2.20
2019-02-14T19:35:36.756Z,2.20
2019-02-14T19:38:02.829Z,2.30
2019-02-14T19:40:28.939Z,2.40
2019-02-14T19:42:55.045Z,2.40
2019-02-14T19:45:21.138Z,2.30
2019-02-14T19:47:47.312Z,2.30
2019-02-14T19:50:13.420Z,2.40
2019-02-14T19:52:39.686Z,2.20
2019-02-14T19:55:08.869Z,2.10
2019-02-14T19:57:34.944Z,2.20
2019-02-14T20:00:01.020Z,2.20
2019-02-14T20:02:27.095Z,2.20
2019-02-14T20:04:53.270Z,2.10
2019-02-14T20:07:19.366Z,2.20
2019-02-14T20:09:45.548Z,2.20
2019-02-14T20:12:11.637Z,2.20
2019-02-14T20:14:37.715Z,2.20
2019-02-14T20:17:04.241Z,2.20
2019-02-14T20:19:30.330Z,2.20
2019-02-14T20:21:56.410Z,2.20
2019-02-14T20:24:22.489Z,2.20
2019-02-14T20:27:08.532Z,2.20
2019-02-14T20:29:34.601Z,2.00
2019-02-14T20:32:00.764Z,2.00
2019-02-14T20:34:26.905Z,1.90
2019-02-14T20:36:52.977Z,1.70
2019-02-14T20:39:19.073Z,1.60
2019-02-14T20:41:46.545Z,1.60
2019-02-14T20:44:12.936Z,1.70
2019-02-14T20:46:38.999Z,1.70
2019-02-14T20:49:05.108Z,1.70
2019-02-14T20:51:38.263Z,1.70
2019-02-14T20:53:59.179Z,1.60
2019-02-14T20:56:25.254Z,1.70
2019-02-14T20:58:51.327Z,1.60
2019-02-14T21:01:17.420Z,1.60
2019-02-14T21:03:43.584Z,1.60
2019-02-14T21:06:09.803Z,1.70
2019-02-14T21:08:35.872Z,1.60
2019-02-14T21:11:01.944Z,1.60
2019-02-14T21:13:28.242Z,1.60
2019-02-14T21:15:54.303Z,1.50
2019-02-14T21:18:20.547Z,1.40
2019-02-14T21:20:46.708Z,1.40
2019-02-14T21:23:12.792Z,1.40
2019-02-14T21:25:39.174Z,1.30
2019-02-14T21:28:05.395Z,1.30
2019-02-14T21:30:34.992Z,1.30
2019-02-14T21:32:59.593Z,1.20
2019-02-14T21:35:25.793Z,1.20
2019-02-14T21:37:51.956Z,1.30
2019-02-14T21:40:18.659Z,1.20
2019-02-14T21:42:44.847Z,1.20
2019-02-14T21:45:15.232Z,1.20
2019-02-14T21:47:41.379Z,1.20
2019-02-14T21:50:09.497Z,1.10
2019-02-14T21:52:35.661Z,1.10
2019-02-14T21:55:02.440Z,1.10
2019-02-14T21:57:28.527Z,1.10
2019-02-14T21:59:54.711Z,1.10
2019-02-14T22:02:20.906Z,1.20
2019-02-14T22:04:47.074Z,1.20
2019-02-14T22:07:13.149Z,1.10
2019-02-14T22:09:39.366Z,1.10
2019-02-14T22:12:05.523Z,1.10
2019-02-14T22:14:31.702Z,1.00
2019-02-14T22:16:57.916Z,1.00
2019-02-14T22:19:24.093Z,1.00
2019-02-14T22:21:50.185Z,1.00
2019-02-14T22:24:16.260Z,1.00
2019-02-14T22:26:42.375Z,1.00
2019-02-14T22:29:08.485Z,1.00
2019-02-14T22:31:35.285Z,1.00
2019-02-14T22:34:01.539Z,1.00
2019-02-14T22:36:27.612Z,0.90
2019-02-14T22:38:53.700Z,0.80
2019-02-14T22:41:19.772Z,0.80
2019-02-14T22:43:45.875Z,0.80
2019-02-14T22:46:11.948Z,0.80
2019-02-14T22:48:38.025Z,0.80
2019-02-14T22:51:04.119Z,0.80
2019-02-14T22:53:30.440Z,0.80
2019-02-14T22:55:56.533Z,0.80
2019-02-14T22:58:22.605Z,0.70
2019-02-14T23:00:52.503Z,0.70
2019-02-14T23:03:18.868Z,0.60
2019-02-14T23:05:44.945Z,0.70
2019-02-14T23:08:11.040Z,0.60
2019-02-14T23:10:37.133Z,0.50
2019-02-14T23:13:03.322Z,0.50
2019-02-14T23:15:29.410Z,0.50
2019-02-14T23:17:55.515Z,0.40
2019-02-14T23:20:21.576Z,0.40
2019-02-14T23:22:47.665Z,0.50
2019-02-14T23:25:13.740Z,0.40
2019-02-14T23:27:39.839Z,0.50
2019-02-14T23:30:10.518Z,0.50
2019-02-14T23:32:36.694Z,0.50
2019-02-14T23:35:03.070Z,0.50
2019-02-14T23:37:29.751Z,0.40
2019-02-14T23:39:55.923Z,0.40
2019-02-14T23:42:22.018Z,0.50
2019-02-14T23:44:48.075Z,0.40
2019-02-14T23:47:14.258Z,0.40
2019-02-14T23:49:40.418Z,0.40
2019-02-14T23:52:06.612Z,0.40
2019-02-14T23:54:32.693Z,0.40
2019-02-14T23:56:58.876Z,0.40
2019-02-14T23:59:24.962Z,0.40
